Time;durP1;ratioP1;P1;durP2;ratioP2;P2;SDS_P1;SDS_P2;PMS_P1;PMS_P2;Temp;Humidity;BMP_temperature;BMP_pressure;BME280_temperature;BME280_humidity;BME280_pressure;Samples;Min_cycle;Max_cycle;Signal;HPM_P1;HPM_P2
2021/05/08 00:00:02;;;;;;;3.53;3.22;;;5.60;53.20;;;;;;5034448;28;20213;-76
2021/05/08 00:02:28;;;;;;;3.35;3.05;;;5.60;53.20;;;;;;5034258;28;20645;-76
2021/05/08 00:04:55;;;;;;;3.88;3.47;;;5.60;53.20;;;;;;5033830;28;20703;-76
2021/05/08 00:07:21;;;;;;;5.97;3.75;;;5.60;53.50;;;;;;5033736;28;20654;-75
2021/05/08 00:09:48;;;;;;;3.55;3.03;;;5.50;53.80;;;;;;5033343;28;20305;-76
2021/05/08 00:12:15;;;;;;;3.97;3.60;;;5.50;54.30;;;;;;5033255;28;20241;-75
2021/05/08 00:14:41;;;;;;;3.83;3.50;;;5.50;55.00;;;;;;5033462;28;20231;-75
2021/05/08 00:17:08;;;;;;;3.88;3.17;;;5.40;55.50;;;;;;5032627;28;20218;-75
2021/05/08 00:19:34;;;;;;;4.15;3.63;;;5.30;55.60;;;;;;5033024;28;20295;-75
2021/05/08 00:22:00;;;;;;;3.80;3.10;;;5.30;55.60;;;;;;5033295;28;20295;-75
2021/05/08 00:24:27;;;;;;;4.10;3.30;;;5.30;55.60;;;;;;5033036;28;20302;-75
2021/05/08 00:26:54;;;;;;;3.33;3.10;;;5.20;55.50;;;;;;5034083;28;20412;-75
2021/05/08 00:29:20;;;;;;;3.53;3.00;;;5.30;55.60;;;;;;5033925;28;20294;-75
2021/05/08 00:31:47;;;;;;;3.72;3.17;;;5.20;55.50;;;;;;5034342;28;20663;-76
2021/05/08 00:34:13;;;;;;;3.35;3.08;;;5.20;55.50;;;;;;5033472;28;20305;-76
2021/05/08 00:36:39;;;;;;;3.92;3.50;;;5.00;55.90;;;;;;5033806;28;20203;-75
2021/05/08 00:39:06;;;;;;;4.88;3.70;;;5.00;56.50;;;;;;5050344;28;20301;-75
2021/05/08 00:41:33;;;;;;;3.22;3.03;;;5.10;56.90;;;;;;5053745;28;20210;-74
2021/05/08 00:44:00;;;;;;;3.90;3.50;;;5.00;57.20;;;;;;5037719;28;20223;-75
2021/05/08 00:46:27;;;;;;;3.80;3.40;;;4.90;57.90;;;;;;5033143;28;20295;-76
2021/05/08 00:48:56;;;;;;;4.90;3.33;;;4.90;57.90;;;;;;5033066;28;20289;-75
2021/05/08 00:51:22;;;;;;;3.92;3.60;;;4.90;58.30;;;;;;5033080;28;20260;-75
2021/05/08 00:53:49;;;;;;;3.55;3.22;;;4.80;58.60;;;;;;5032370;28;20750;-75
2021/05/08 00:56:15;;;;;;;4.95;3.10;;;4.70;59.70;;;;;;5032885;28;20211;-76
2021/05/08 00:58:42;;;;;;;3.40;3.05;;;4.70;60.30;;;;;;5032749;28;20298;-75
2021/05/08 01:01:09;;;;;;;5.30;3.70;;;4.70;60.50;;;;;;5032547;28;20218;-75
2021/05/08 01:03:36;;;;;;;3.90;3.05;;;4.70;61.10;;;;;;5032474;28;20237;-74
2021/05/08 01:06:03;;;;;;;3.80;3.40;;;4.60;61.60;;;;;;5033020;28;20211;-75
2021/05/08 01:08:30;;;;;;;3.75;3.45;;;4.70;61.90;;;;;;5032686;28;20203;-74
2021/05/08 01:10:57;;;;;;;3.53;3.22;;;4.70;61.90;;;;;;5031370;28;20287;-75
2021/05/08 01:13:23;;;;;;;4.20;3.47;;;4.70;61.80;;;;;;5033160;28;20298;-74
2021/05/08 01:15:50;;;;;;;4.43;4.00;;;4.70;61.70;;;;;;5032976;28;20203;-75
2021/05/08 01:18:17;;;;;;;3.60;2.90;;;4.60;61.70;;;;;;5032152;28;20298;-74
2021/05/08 01:20:44;;;;;;;4.88;3.50;;;4.60;61.90;;;;;;5032127;28;20268;-74
2021/05/08 01:23:11;;;;;;;3.35;3.05;;;4.50;62.80;;;;;;5031986;28;20225;-75
2021/05/08 01:25:37;;;;;;;4.32;3.92;;;4.60;64.00;;;;;;5032119;28;20200;-75
2021/05/08 01:28:04;;;;;;;3.70;3.28;;;4.70;64.10;;;;;;5031403;28;20298;-75
2021/05/08 01:30:34;;;;;;;4.00;3.70;;;4.70;63.70;;;;;;5032599;28;20268;-74
2021/05/08 01:33:00;;;;;;;4.20;3.45;;;4.60;63.30;;;;;;5031969;28;20321;-75
2021/05/08 01:35:28;;;;;;;4.32;3.50;;;4.60;62.90;;;;;;5032732;28;20813;-75
2021/05/08 01:37:54;;;;;;;3.80;3.50;;;4.70;62.60;;;;;;5032215;28;20246;-75
2021/05/08 01:40:27;;;;;;;6.05;4.10;;;4.60;63.10;;;;;;5032081;28;20283;-75
2021/05/08 01:42:53;;;;;;;4.57;4.10;;;4.60;63.20;;;;;;5032679;28;20705;-74
2021/05/08 01:45:22;;;;;;;6.40;3.50;;;4.50;63.90;;;;;;5033077;28;20755;-75
2021/05/08 01:47:50;;;;;;;3.55;3.25;;;4.40;63.80;;;;;;5033483;28;20207;-75
2021/05/08 01:50:18;;;;;;;6.20;4.43;;;4.40;63.80;;;;;;5032659;28;20230;-75
2021/05/08 01:52:44;;;;;;;4.20;3.65;;;4.30;64.20;;;;;;5032856;28;20282;-76
2021/05/08 01:55:14;;;;;;;4.35;3.60;;;4.20;64.80;;;;;;5032849;28;20261;-75
2021/05/08 01:57:43;;;;;;;3.55;3.00;;;4.10;65.10;;;;;;5031871;28;20646;-75
2021/05/08 02:00:12;;;;;;;3.80;3.47;;;4.10;65.80;;;;;;5031606;28;20200;-75
2021/05/08 02:02:38;;;;;;;4.85;3.47;;;4.00;66.00;;;;;;5031223;28;20295;-74
2021/05/08 02:05:06;;;;;;;4.47;4.07;;;4.00;66.40;;;;;;5031382;28;20380;-74
2021/05/08 02:07:33;;;;;;;3.70;3.40;;;4.10;66.70;;;;;;5031027;28;20228;-75
2021/05/08 02:09:59;;;;;;;4.40;4.00;;;4.10;65.60;;;;;;5031339;28;20290;-75
2021/05/08 02:12:29;;;;;;;4.25;3.50;;;4.00;65.50;;;;;;5031363;28;20207;-75
2021/05/08 02:14:56;;;;;;;4.18;3.70;;;4.10;65.10;;;;;;5032093;28;20246;-75
2021/05/08 02:17:23;;;;;;;3.63;3.30;;;4.00;64.80;;;;;;5031222;28;20290;-75
2021/05/08 02:19:49;;;;;;;5.15;3.90;;;4.00;65.60;;;;;;5032178;28;20670;-74
2021/05/08 02:22:16;;;;;;;4.95;3.60;;;4.00;65.70;;;;;;5032154;28;20245;-74
2021/05/08 02:24:42;;;;;;;3.65;3.35;;;3.90;65.90;;;;;;5031783;28;20714;-75
2021/05/08 02:27:09;;;;;;;4.25;3.55;;;3.90;65.60;;;;;;5030966;28;20252;-75
2021/05/08 02:29:35;;;;;;;4.03;3.70;;;3.80;66.00;;;;;;5030981;28;20619;-75
2021/05/08 02:32:03;;;;;;;6.75;3.70;;;3.70;66.60;;;;;;5031149;28;20294;-75
2021/05/08 02:34:29;;;;;;;4.72;3.25;;;3.70;66.90;;;;;;5031186;28;20313;-74
2021/05/08 02:36:55;;;;;;;3.60;3.30;;;3.70;67.30;;;;;;5031183;28;20301;-74
2021/05/08 02:39:22;;;;;;;3.30;3.00;;;3.70;68.30;;;;;;5033226;28;20297;-75
2021/05/08 02:41:48;;;;;;;5.13;3.75;;;3.60;67.50;;;;;;5035161;28;20302;-75
2021/05/08 02:44:14;;;;;;;6.70;3.40;;;3.60;67.80;;;;;;5035350;28;20306;-75
2021/05/08 02:46:41;;;;;;;3.63;3.00;;;3.50;68.10;;;;;;5035223;28;20341;-75
2021/05/08 02:49:08;;;;;;;3.92;3.60;;;3.50;68.60;;;;;;5035083;28;20207;-74
2021/05/08 02:51:34;;;;;;;4.28;3.55;;;3.50;68.90;;;;;;5034560;28;20377;-74
2021/05/08 02:54:01;;;;;;;3.58;3.28;;;3.50;68.70;;;;;;5034703;28;20231;-74
2021/05/08 02:56:27;;;;;;;3.72;3.38;;;3.50;69.20;;;;;;5034404;28;20296;-74
2021/05/08 02:58:53;;;;;;;4.28;3.88;;;3.50;69.10;;;;;;5034936;28;20289;-74
2021/05/08 03:01:20;;;;;;;4.45;3.55;;;3.40;69.20;;;;;;5034709;28;20208;-74
2021/05/08 03:03:46;;;;;;;4.97;3.45;;;3.40;69.80;;;;;;5034512;28;20235;-76
2021/05/08 03:06:13;;;;;;;5.85;3.22;;;3.40;70.00;;;;;;5034444;28;20348;-74
2021/05/08 03:08:39;;;;;;;4.10;3.70;;;3.30;69.90;;;;;;5034696;28;20207;-74
2021/05/08 03:11:06;;;;;;;4.88;4.38;;;3.30;70.20;;;;;;5034516;28;20229;-74
2021/05/08 03:13:32;;;;;;;3.90;3.60;;;3.20;71.40;;;;;;5034936;28;20231;-74
2021/05/08 03:15:59;;;;;;;4.35;3.40;;;3.20;71.50;;;;;;5034221;28;20295;-75
2021/05/08 03:18:25;;;;;;;4.68;3.58;;;3.20;71.50;;;;;;5034659;28;20242;-75
2021/05/08 03:20:51;;;;;;;4.20;3.75;;;3.20;71.50;;;;;;5034618;28;20286;-75
2021/05/08 03:23:18;;;;;;;4.10;3.53;;;3.10;71.40;;;;;;5034629;28;20211;-74
2021/05/08 03:25:45;;;;;;;3.65;3.17;;;3.20;71.50;;;;;;5035277;28;20249;-75
2021/05/08 03:28:11;;;;;;;3.67;3.22;;;3.10;71.40;;;;;;5033854;28;20211;-74
2021/05/08 03:30:37;;;;;;;4.32;3.25;;;3.10;71.60;;;;;;5035207;28;20211;-73
2021/05/08 03:33:05;;;;;;;3.88;3.53;;;3.10;71.40;;;;;;5034629;28;20285;-73
2021/05/08 03:35:31;;;;;;;4.38;3.20;;;3.00;72.00;;;;;;5034823;28;20257;-74
2021/05/08 03:37:57;;;;;;;4.43;4.03;;;3.00;72.10;;;;;;5034318;28;20264;-75
2021/05/08 03:40:25;;;;;;;5.22;3.60;;;3.00;71.60;;;;;;5034119;28;20287;-74
2021/05/08 03:42:51;;;;;;;4.10;3.45;;;3.00;71.60;;;;;;5034198;28;20690;-74
2021/05/08 03:45:17;;;;;;;3.85;3.47;;;3.10;71.40;;;;;;5034220;28;20627;-75
2021/05/08 03:47:44;;;;;;;4.45;3.67;;;3.10;71.40;;;;;;5033962;28;20294;-74
2021/05/08 03:50:10;;;;;;;3.72;3.42;;;3.10;71.60;;;;;;5033166;28;20261;-74
2021/05/08 03:52:37;;;;;;;4.00;3.70;;;3.10;71.90;;;;;;5034496;28;20213;-75
2021/05/08 03:55:04;;;;;;;3.53;3.22;;;3.10;72.10;;;;;;5034439;28;20233;-75
2021/05/08 03:57:31;;;;;;;5.47;3.85;;;3.10;72.50;;;;;;5033617;28;20287;-75
2021/05/08 03:59:58;;;;;;;5.72;3.80;;;3.30;71.60;;;;;;5034326;28;20223;-75
2021/05/08 04:02:24;;;;;;;4.63;4.03;;;3.30;70.30;;;;;;5044268;28;20286;-75
2021/05/08 04:04:51;;;;;;;4.63;3.47;;;3.30;70.10;;;;;;5037429;28;20321;-75
2021/05/08 04:07:17;;;;;;;4.10;3.33;;;3.20;69.90;;;;;;5033609;28;20206;-75
2021/05/08 04:09:43;;;;;;;4.38;3.30;;;3.20;70.70;;;;;;5033530;28;20253;-74
2021/05/08 04:12:10;;;;;;;4.25;3.35;;;3.30;70.90;;;;;;5034843;28;20205;-75
2021/05/08 04:14:37;;;;;;;4.63;4.22;;;3.30;70.20;;;;;;5035280;28;20235;-76
2021/05/08 04:43:04;;;;;;;3.35;3.05;;;5.60;60.40;;;;;;6022507;22;20723;-74
2021/05/08 04:45:31;;;;;;;4.00;3.60;;;6.20;57.10;;;;;;5032606;28;20785;-74
2021/05/08 04:47:58;;;;;;;3.80;3.50;;;6.80;53.90;;;;;;5024210;28;20504;-75
2021/05/08 04:50:26;;;;;;;3.45;3.10;;;7.30;51.10;;;;;;5014674;28;20671;-74
2021/05/08 04:52:53;;;;;;;3.05;2.80;;;7.70;48.20;;;;;;5021234;28;20649;-74
2021/05/08 04:55:20;;;;;;;3.65;2.90;;;8.20;45.90;;;;;;5013133;28;20270;-73
2021/05/08 04:57:46;;;;;;;4.18;3.70;;;8.60;44.20;;;;;;5006871;28;20205;-74
2021/05/08 05:00:15;;;;;;;5.68;3.00;;;8.80;42.60;;;;;;4993577;28;20240;-74
2021/05/08 05:02:42;;;;;;;3.63;3.33;;;8.70;41.60;;;;;;4998634;28;20207;-74
2021/05/08 05:05:10;;;;;;;3.38;2.75;;;9.00;40.60;;;;;;5012085;28;20338;-74
2021/05/08 05:07:37;;;;;;;3.25;2.45;;;9.30;39.90;;;;;;4993035;28;20208;-74
2021/05/08 05:10:04;;;;;;;4.40;3.35;;;9.10;39.70;;;;;;4993319;28;20212;-74
2021/05/08 05:12:31;;;;;;;4.43;3.03;;;8.60;40.40;;;;;;4993237;28;20293;-73
2021/05/08 05:14:57;;;;;;;3.45;3.15;;;8.20;41.20;;;;;;4995409;28;20319;-75
2021/05/08 05:17:24;;;;;;;3.00;2.60;;;9.00;39.60;;;;;;4993589;28;20747;-73
2021/05/08 05:19:51;;;;;;;3.10;2.90;;;9.70;38.40;;;;;;4995034;28;20273;-74
2021/05/08 05:22:17;;;;;;;2.78;2.38;;;9.90;36.20;;;;;;4993375;28;20295;-73
2021/05/08 05:24:43;;;;;;;4.18;2.78;;;10.40;35.40;;;;;;5008085;28;20220;-75
2021/05/08 05:27:10;;;;;;;2.90;2.60;;;10.10;35.70;;;;;;5011176;28;20295;-74
2021/05/08 05:29:36;;;;;;;2.83;2.38;;;11.00;32.30;;;;;;5011819;28;20204;-74
2021/05/08 05:32:03;;;;;;;4.95;2.80;;;11.80;31.10;;;;;;5012202;28;20200;-75
2021/05/08 05:34:30;;;;;;;4.60;2.88;;;12.10;29.90;;;;;;4995986;28;20308;-73
2021/05/08 05:36:57;;;;;;;3.40;2.72;;;12.50;28.30;;;;;;4994640;28;20703;-74
2021/05/08 05:39:23;;;;;;;2.72;2.53;;;12.60;28.70;;;;;;5009985;28;20284;-73
2021/05/08 05:41:50;;;;;;;2.80;2.50;;;13.10;27.50;;;;;;4995090;28;20235;-73
2021/05/08 05:44:16;;;;;;;2.38;2.20;;;13.20;27.10;;;;;;5014382;28;20264;-74
2021/05/08 05:46:43;;;;;;;2.78;2.58;;;13.30;26.60;;;;;;5012548;28;20564;-74
2021/05/08 05:49:09;;;;;;;3.08;2.83;;;13.40;26.60;;;;;;4993898;28;20306;-74
2021/05/08 05:51:36;;;;;;;2.60;2.40;;;13.40;26.50;;;;;;4994999;28;20204;-74
2021/05/08 05:54:03;;;;;;;4.50;2.25;;;12.90;27.30;;;;;;4993731;28;20315;-74
2021/05/08 05:56:30;;;;;;;3.10;2.80;;;12.90;27.50;;;;;;4997428;28;20684;-75
2021/05/08 05:58:56;;;;;;;3.40;2.65;;;13.10;27.30;;;;;;5009671;28;20287;-74
2021/05/08 06:01:22;;;;;;;3.97;2.40;;;13.30;27.40;;;;;;5011566;28;20209;-73
2021/05/08 06:03:49;;;;;;;2.88;2.50;;;13.20;27.40;;;;;;5011649;28;20232;-73
2021/05/08 06:06:15;;;;;;;2.67;2.47;;;13.50;26.80;;;;;;5023223;28;20310;-74
2021/05/08 06:08:42;;;;;;;3.55;2.92;;;13.90;25.90;;;;;;5029097;28;20196;-73
2021/05/08 06:11:09;;;;;;;2.67;2.47;;;14.30;25.20;;;;;;5013828;28;20259;-73
2021/05/08 06:13:35;;;;;;;2.53;2.33;;;14.30;24.80;;;;;;5023081;28;20496;-74
2021/05/08 06:16:02;;;;;;;2.97;2.78;;;14.00;26.10;;;;;;5014105;28;20219;-73
2021/05/08 06:18:29;;;;;;;4.40;2.85;;;14.00;25.40;;;;;;5010944;28;20203;-74
2021/05/08 06:20:55;;;;;;;3.75;3.42;;;13.80;25.90;;;;;;5011813;28;20298;-74
2021/05/08 06:23:22;;;;;;;2.95;2.75;;;12.30;28.20;;;;;;4992694;28;20712;-75
2021/05/08 06:25:49;;;;;;;3.47;3.17;;;12.50;28.80;;;;;;4991645;28;20802;-74
2021/05/08 06:28:17;;;;;;;3.85;3.45;;;13.40;27.30;;;;;;4991559;28;20300;-74
2021/05/08 06:30:43;;;;;;;4.65;3.30;;;13.90;25.50;;;;;;4991822;28;20283;-74
2021/05/08 06:33:10;;;;;;;4.28;3.20;;;13.80;25.80;;;;;;4992935;28;20287;-75
2021/05/08 06:35:36;;;;;;;4.22;3.38;;;14.00;25.70;;;;;;4991842;28;20671;-75
2021/05/08 06:38:02;;;;;;;3.50;3.00;;;13.10;26.70;;;;;;5006401;28;20254;-77
2021/05/08 06:40:29;;;;;;;3.30;2.85;;;12.60;27.90;;;;;;5011498;28;20753;-76
2021/05/08 06:42:58;;;;;;;4.10;3.70;;;12.90;26.90;;;;;;4999147;28;20704;-76
2021/05/08 06:45:24;;;;;;;5.07;4.05;;;12.60;27.40;;;;;;4995054;28;20213;-76
2021/05/08 06:47:57;;;;;;;5.32;3.63;;;10.50;30.00;;;;;;4993662;28;20291;-75
2021/05/08 06:50:24;;;;;;;6.47;3.88;;;10.30;31.40;;;;;;4993328;28;20632;-77
2021/05/08 06:52:50;;;;;;;5.63;3.60;;;10.20;31.70;;;;;;4993987;28;20323;-75
2021/05/08 06:55:17;;;;;;;6.85;4.30;;;10.40;31.60;;;;;;4993166;28;20561;-77
2021/05/08 06:57:43;;;;;;;5.68;3.70;;;10.50;31.00;;;;;;4999730;28;20208;-76
2021/05/08 07:00:12;;;;;;;3.70;3.50;;;10.80;30.20;;;;;;5002081;28;20251;-76
2021/05/08 07:02:38;;;;;;;6.35;3.85;;;11.00;30.70;;;;;;4993223;28;20255;-77
2021/05/08 07:05:06;;;;;;;3.92;3.53;;;11.10;30.50;;;;;;5009628;28;20263;-76
2021/05/08 07:07:32;;;;;;;3.40;3.10;;;11.00;30.40;;;;;;5010860;28;20286;-77
2021/05/08 07:09:58;;;;;;;5.25;3.40;;;11.10;30.50;;;;;;5012495;28;20215;-76
2021/05/08 07:12:26;;;;;;;3.60;3.30;;;11.30;30.70;;;;;;5012336;28;20297;-77
2021/05/08 07:14:52;;;;;;;3.83;3.45;;;11.60;29.60;;;;;;5012405;28;20301;-77
2021/05/08 07:17:19;;;;;;;3.40;3.10;;;11.80;29.20;;;;;;5011505;28;20239;-76
2021/05/08 07:19:46;;;;;;;4.07;3.50;;;11.80;29.50;;;;;;5011820;28;20251;-76
2021/05/08 07:22:12;;;;;;;4.50;3.60;;;11.80;29.50;;;;;;5007624;28;20208;-76
2021/05/08 07:24:38;;;;;;;3.97;3.20;;;11.90;29.50;;;;;;5010841;28;20775;-77
2021/05/08 07:27:05;;;;;;;4.63;3.58;;;12.00;29.40;;;;;;5025811;28;20239;-76
2021/05/08 07:29:31;;;;;;;3.72;3.42;;;11.90;29.80;;;;;;5015742;28;20223;-76
2021/05/08 07:31:59;;;;;;;5.57;3.45;;;11.60;29.60;;;;;;5014173;28;20250;-78
2021/05/08 07:34:26;;;;;;;5.25;3.30;;;11.90;29.30;;;;;;5001349;28;20232;-77
2021/05/08 07:36:52;;;;;;;4.65;3.67;;;11.90;29.40;;;;;;4995857;28;20283;-77
2021/05/08 07:39:19;;;;;;;4.05;3.10;;;12.10;29.30;;;;;;5009498;28;20738;-76
2021/05/08 07:41:45;;;;;;;4.63;3.80;;;12.30;29.20;;;;;;5020336;28;20204;-77
2021/05/08 07:44:12;;;;;;;3.50;3.20;;;12.30;29.30;;;;;;5005782;28;20301;-77
2021/05/08 07:46:38;;;;;;;3.97;3.20;;;12.20;29.30;;;;;;5003259;28;20232;-77
2021/05/08 07:49:04;;;;;;;3.60;3.30;;;12.10;29.10;;;;;;5007808;28;20227;-77
2021/05/08 07:51:32;;;;;;;4.78;4.05;;;11.80;29.70;;;;;;5013829;28;20568;-77
2021/05/08 07:53:58;;;;;;;3.13;2.83;;;11.50;30.80;;;;;;5012904;28;20287;-77
2021/05/08 07:56:24;;;;;;;4.47;3.22;;;11.80;31.10;;;;;;5014655;28;20558;-78
2021/05/08 07:58:51;;;;;;;3.45;2.95;;;12.10;29.90;;;;;;4996449;28;20300;-79
2021/05/08 08:01:17;;;;;;;4.35;3.25;;;12.30;28.90;;;;;;4998233;28;20273;-78
2021/05/08 08:03:43;;;;;;;3.53;3.20;;;12.40;28.40;;;;;;5015667;28;20258;-76
2021/05/08 08:06:10;;;;;;;4.50;2.83;;;12.50;28.80;;;;;;5015851;28;20458;-77
2021/05/08 08:08:37;;;;;;;2.88;2.67;;;12.60;28.30;;;;;;5015457;28;20282;-77
2021/05/08 08:11:03;;;;;;;3.13;2.92;;;12.70;28.60;;;;;;5016948;28;20208;-77
2021/05/08 08:13:30;;;;;;;3.20;2.92;;;12.80;28.10;;;;;;5015707;28;20228;-78
2021/05/08 08:15:56;;;;;;;4.88;3.10;;;12.90;28.00;;;;;;5015772;28;20622;-78
2021/05/08 08:18:25;;;;;;;2.75;2.55;;;13.00;27.50;;;;;;5015009;28;20215;-77
2021/05/08 08:20:52;;;;;;;2.95;2.75;;;13.10;28.20;;;;;;5017448;28;20234;-78
2021/05/08 08:23:19;;;;;;;3.65;2.90;;;13.60;27.00;;;;;;5007028;28;20738;-78
2021/05/08 08:25:47;;;;;;;3.00;2.80;;;12.80;27.70;;;;;;4998940;28;20211;-78
2021/05/08 08:28:13;;;;;;;3.65;2.50;;;13.10;28.00;;;;;;4998549;28;20295;-78
2021/05/08 08:30:39;;;;;;;3.42;3.13;;;13.60;26.90;;;;;;4998156;28;20232;-79
2021/05/08 08:33:06;;;;;;;3.60;3.30;;;14.10;25.70;;;;;;5006204;28;20204;-76
2021/05/08 08:35:32;;;;;;;5.60;2.70;;;14.40;24.80;;;;;;5015350;28;20224;-77
2021/05/08 08:37:59;;;;;;;3.10;2.80;;;14.80;25.10;;;;;;5006571;28;20234;-76
2021/05/08 08:40:26;;;;;;;4.07;3.08;;;15.30;25.10;;;;;;4994998;28;20467;-78
2021/05/08 08:42:53;;;;;;;5.40;2.63;;;14.80;25.10;;;;;;5012278;28;20263;-75
2021/05/08 08:45:20;;;;;;;3.23;2.80;;;15.40;24.10;;;;;;5026980;28;20238;-75
2021/05/08 08:47:47;;;;;;;3.43;3.13;;;15.80;23.00;;;;;;5030176;28;20508;-74
2021/05/08 08:50:15;;;;;;;3.00;2.73;;;15.20;24.20;;;;;;5037618;28;20434;-74
2021/05/08 08:52:41;;;;;;;3.40;2.47;;;15.60;23.60;;;;;;5027172;28;20448;-75
2021/05/08 08:55:09;;;;;;;4.77;2.90;;;15.20;24.20;;;;;;5013313;28;20523;-77
2021/05/08 08:57:39;;;;;;;4.30;3.00;;;15.80;23.90;;;;;;5022876;28;20438;-73
2021/05/08 09:00:08;;;;;;;4.37;3.40;;;15.80;23.80;;;;;;5032075;28;20459;-76
2021/05/08 09:02:35;;;;;;;3.27;2.60;;;15.40;24.40;;;;;;5024881;28;20451;-76
2021/05/08 09:05:01;;;;;;;3.40;2.70;;;15.50;24.00;;;;;;5007502;28;20487;-76
2021/05/08 09:07:30;;;;;;;4.77;2.70;;;15.40;23.70;;;;;;5011110;28;20463;-75
2021/05/08 09:09:57;;;;;;;2.80;2.60;;;15.20;23.70;;;;;;5025811;28;20486;-74
2021/05/08 09:12:27;;;;;;;3.00;2.80;;;14.90;25.30;;;;;;5020758;28;20283;-74
2021/05/08 09:14:53;;;;;;;3.40;3.10;;;15.80;23.60;;;;;;5006347;28;20466;-75
2021/05/08 09:17:22;;;;;;;3.43;3.10;;;16.40;22.10;;;;;;5009299;28;20493;-75
2021/05/08 09:19:56;;;;;;;3.50;2.90;;;16.40;22.50;;;;;;5023678;28;20426;-74
2021/05/08 09:22:28;;;;;;;4.37;3.30;;;17.00;21.70;;;;;;5025092;28;20477;-75
2021/05/08 09:25:00;;;;;;;3.27;2.97;;;17.50;19.90;;;;;;5025285;28;20549;-75
2021/05/08 09:27:34;;;;;;;5.23;3.07;;;16.80;21.50;;;;;;5024375;28;20429;-75
2021/05/08 09:30:15;;;;;;;3.10;2.80;;;16.40;21.90;;;;;;5024855;28;20490;-74
2021/05/08 09:32:44;;;;;;;3.30;3.00;;;16.20;22.40;;;;;;5018544;28;20451;-75
2021/05/08 09:35:13;;;;;;;3.10;2.80;;;16.50;21.80;;;;;;4999917;28;20523;-74
2021/05/08 09:37:39;;;;;;;3.23;2.43;;;15.90;20.90;;;;;;4995703;28;20931;-74
2021/05/08 09:40:13;;;;;;;3.50;2.10;;;16.00;21.60;;;;;;4995522;28;20599;-75
2021/05/08 09:42:44;;;;;;;2.70;2.50;;;16.20;20.80;;;;;;4993979;28;20520;-75
2021/05/08 09:45:12;;;;;;;7.10;2.50;;;16.20;21.20;;;;;;4993362;28;20554;-76
2021/05/08 09:47:38;;;;;;;4.20;2.10;;;16.70;20.00;;;;;;5002074;28;20455;-76
2021/05/08 09:50:07;;;;;;;2.40;2.20;;;17.00;19.70;;;;;;5012759;28;20453;-75
2021/05/08 09:52:44;;;;;;;2.80;2.30;;;16.60;19.60;;;;;;5004774;28;20434;-76
2021/05/08 09:55:11;;;;;;;3.57;2.57;;;16.80;18.90;;;;;;4994452;28;20594;-75
2021/05/08 09:57:38;;;;;;;2.50;2.30;;;16.70;19.20;;;;;;5005277;28;20432;-75
2021/05/08 10:00:26;;;;;;;2.30;2.10;;;16.70;19.10;;;;;;5014937;28;20557;-77
2021/05/08 10:03:01;;;;;;;4.70;2.77;;;16.60;18.90;;;;;;5002972;28;20437;-76
2021/05/08 10:05:29;;;;;;;3.90;2.40;;;15.70;20.30;;;;;;4993422;28;20525;-75
2021/05/08 10:07:55;;;;;;;3.40;2.20;;;16.40;20.10;;;;;;5002346;28;20444;-75
2021/05/08 10:10:22;;;;;;;2.17;2.00;;;17.00;18.60;;;;;;5015893;28;20455;-76
2021/05/08 10:12:49;;;;;;;2.23;1.80;;;17.50;18.80;;;;;;5013948;28;20498;-75
2021/05/08 10:15:15;;;;;;;2.00;1.70;;;18.10;18.60;;;;;;5006268;28;20524;-77
2021/05/08 10:17:44;;;;;;;2.77;1.90;;;18.70;17.80;;;;;;4996441;28;20464;-75
2021/05/08 10:20:13;;;;;;;1.70;1.60;;;19.10;17.50;;;;;;4995335;28;21025;-76
2021/05/08 10:22:43;;;;;;;2.60;1.97;;;19.60;16.80;;;;;;4972137;28;20522;-75
2021/05/08 10:25:11;;;;;;;2.43;1.60;;;20.00;16.10;;;;;;4980687;28;20465;-75
2021/05/08 10:27:38;;;;;;;4.30;1.87;;;20.00;16.50;;;;;;4969603;28;20760;-77
2021/05/08 10:30:06;;;;;;;1.90;1.80;;;19.90;15.60;;;;;;4962403;29;20522;-77
2021/05/08 10:32:33;;;;;;;1.93;1.83;;;19.40;16.90;;;;;;4983967;28;20479;-76
2021/05/08 10:35:02;;;;;;;2.70;2.17;;;19.20;16.20;;;;;;4985259;28;20561;-77
2021/05/08 10:37:30;;;;;;;1.77;1.60;;;19.60;16.40;;;;;;4967446;28;20461;-76
2021/05/08 10:39:59;;;;;;;2.93;1.80;;;19.60;16.60;;;;;;4958941;28;20457;-76
2021/05/08 10:42:33;;;;;;;4.60;2.00;;;19.80;15.50;;;;;;4962256;29;20466;-77
2021/05/08 10:45:00;;;;;;;3.10;1.87;;;19.40;16.20;;;;;;4962301;29;20505;-77
2021/05/08 10:48:10;;;;;;;2.23;1.53;;;19.30;17.00;;;;;;4963501;28;20949;-78
2021/05/08 10:50:52;;;;;;;2.00;1.60;;;19.50;15.60;;;;;;4963061;29;20417;-77
2021/05/08 10:53:19;;;;;;;2.03;1.80;;;18.80;16.50;;;;;;4976194;28;20499;-77
2021/05/08 10:55:51;;;;;;;1.97;1.60;;;19.30;16.20;;;;;;4983645;28;20577;-77
2021/05/08 10:58:32;;;;;;;1.67;1.50;;;19.00;16.50;;;;;;4982692;28;20498;-77
2021/05/08 11:01:00;;;;;;;3.17;2.13;;;19.30;16.80;;;;;;4984842;28;20472;-76
2021/05/08 11:03:28;;;;;;;2.77;1.73;;;19.90;16.20;;;;;;4984758;28;20478;-77
2021/05/08 11:05:55;;;;;;;2.00;1.80;;;20.50;15.20;;;;;;4982968;28;20455;-77
2021/05/08 11:08:46;;;;;;;2.83;2.23;;;20.40;15.20;;;;;;4983931;28;20977;-76
2021/05/08 11:11:16;;;;;;;2.43;2.00;;;20.70;15.30;;;;;;4984480;28;20463;-76
2021/05/08 11:13:48;;;;;;;2.87;2.07;;;20.90;14.90;;;;;;4969448;28;20522;-74
2021/05/08 11:16:16;;;;;;;2.00;1.90;;;20.60;15.70;;;;;;4965333;28;20469;-77
2021/05/08 11:18:44;;;;;;;2.13;1.93;;;20.60;15.30;;;;;;4971454;29;20464;-76
2021/05/08 11:21:50;;;;;;;3.27;1.50;;;20.80;15.10;;;;;;4979461;28;20477;-75
2021/05/08 11:24:39;;;;;;;6.47;1.90;;;20.60;14.80;;;;;;4981503;28;20440;-74
2021/05/08 11:27:21;;;;;;;1.70;1.60;;;19.10;16.60;;;;;;4974431;28;20450;-77
2021/05/08 11:29:48;;;;;;;1.90;1.80;;;19.50;16.10;;;;;;4970945;29;20440;-77
2021/05/08 11:32:14;;;;;;;1.87;1.77;;;20.20;16.20;;;;;;4974448;28;20465;-75
2021/05/08 11:34:44;;;;;;;1.73;1.63;;;20.90;14.70;;;;;;4974757;29;20497;-77
2021/05/08 11:37:14;;;;;;;1.70;1.60;;;21.10;14.50;;;;;;4971093;28;20431;-78
2021/05/08 11:39:42;;;;;;;1.80;1.70;;;21.10;14.10;;;;;;4964154;29;20453;-74
2021/05/08 11:42:15;;;;;;;1.97;1.67;;;21.10;14.70;;;;;;4985186;28;20462;-74
2021/05/08 11:44:43;;;;;;;1.80;1.57;;;20.80;14.70;;;;;;4989481;28;20492;-74
2021/05/08 11:47:30;;;;;;;2.23;2.00;;;20.80;15.20;;;;;;4983787;28;20420;-73
2021/05/08 11:49:59;;;;;;;1.97;1.70;;;20.80;14.20;;;;;;4979131;28;20458;-73
2021/05/08 11:52:33;;;;;;;2.13;1.93;;;19.90;16.30;;;;;;4996368;28;20451;-74
2021/05/08 11:54:59;;;;;;;2.10;1.73;;;19.10;16.70;;;;;;4979776;28;20475;-75
2021/05/08 11:57:26;;;;;;;3.87;1.67;;;18.70;17.20;;;;;;4962607;28;20467;-74
2021/05/08 11:59:54;;;;;;;1.77;1.67;;;19.70;16.20;;;;;;4977740;28;20459;-74
2021/05/08 12:02:22;;;;;;;2.90;2.20;;;19.90;16.30;;;;;;4961842;28;20774;-75
2021/05/08 12:04:50;;;;;;;2.00;1.80;;;20.50;15.50;;;;;;4961178;28;20444;-74
2021/05/08 12:07:24;;;;;;;2.87;1.60;;;20.80;14.90;;;;;;4960357;28;20465;-74
2021/05/08 12:09:51;;;;;;;2.97;2.03;;;20.90;15.40;;;;;;4962608;28;20515;-74
2021/05/08 12:12:18;;;;;;;3.07;1.70;;;20.40;15.30;;;;;;4987243;28;20463;-76
2021/05/08 12:14:46;;;;;;;2.33;2.03;;;20.80;15.30;;;;;;4992874;28;20491;-75
2021/05/08 12:17:14;;;;;;;2.40;1.70;;;21.40;14.70;;;;;;4976183;28;20464;-75
2021/05/08 12:19:44;;;;;;;2.53;1.83;;;21.80;14.80;;;;;;4975078;28;20471;-74
2021/05/08 12:22:11;;;;;;;2.43;2.23;;;22.30;13.80;;;;;;4957365;28;20461;-74
2021/05/08 12:24:38;;;;;;;3.13;1.83;;;20.60;15.30;;;;;;4957486;28;20458;-78
2021/05/08 12:27:04;;;;;;;1.93;1.80;;;19.50;16.50;;;;;;4956434;28;20457;-75
2021/05/08 12:29:53;;;;;;;1.70;1.60;;;19.60;16.80;;;;;;4966624;28;20900;-75
2021/05/08 12:32:20;;;;;;;2.17;1.83;;;20.10;16.00;;;;;;4976104;28;20528;-78
2021/05/08 12:34:52;;;;;;;1.83;1.60;;;20.40;16.40;;;;;;4963953;28;20497;-75
2021/05/08 12:37:18;;;;;;;1.80;1.70;;;21.20;14.90;;;;;;4956927;29;20428;-77
2021/05/08 12:39:45;;;;;;;1.70;1.60;;;20.80;15.50;;;;;;4969350;28;20479;-75
2021/05/08 12:42:11;;;;;;;2.90;2.10;;;21.10;15.50;;;;;;4978466;28;20491;-77
2021/05/08 12:44:40;;;;;;;2.60;2.20;;;21.20;15.40;;;;;;4967864;28;20485;-76
2021/05/08 12:47:16;;;;;;;3.40;2.00;;;21.30;15.70;;;;;;4957009;28;20432;-76
2021/05/08 12:50:05;;;;;;;3.63;1.80;;;21.70;15.20;;;;;;4965577;28;20825;-76
2021/05/08 12:52:32;;;;;;;1.80;1.70;;;21.60;14.70;;;;;;4965492;28;20516;-75
2021/05/08 12:54:58;;;;;;;1.67;1.57;;;21.90;15.00;;;;;;4961459;28;20470;-76
2021/05/08 12:57:26;;;;;;;3.03;1.50;;;22.10;14.30;;;;;;4978021;28;20470;-75
2021/05/08 12:59:58;;;;;;;1.93;1.77;;;21.80;14.10;;;;;;4973939;28;20428;-75
2021/05/08 13:02:26;;;;;;;2.40;2.10;;;21.70;15.20;;;;;;4961942;29;20443;-76
2021/05/08 13:04:54;;;;;;;2.17;1.70;;;21.00;14.80;;;;;;4960962;28;20476;-76
2021/05/08 13:07:23;;;;;;;2.27;1.60;;;20.60;15.60;;;;;;4975687;28;20436;-77
2021/05/08 13:09:50;;;;;;;2.93;1.70;;;19.80;16.20;;;;;;4977193;28;20460;-78
2021/05/08 13:12:19;;;;;;;1.80;1.63;;;20.10;16.00;;;;;;4988501;28;20451;-76
2021/05/08 13:14:46;;;;;;;2.90;1.77;;;20.80;15.60;;;;;;4976479;28;20984;-78
2021/05/08 13:17:13;;;;;;;2.73;2.20;;;21.30;15.00;;;;;;4983382;28;20535;-78
2021/05/08 13:19:39;;;;;;;1.70;1.60;;;21.60;14.90;;;;;;4947911;29;20462;-76